Beaufort MCAS - Merritt Field
KNBC : now visible

Airfield :











YOU CAN JOIN US ON...

 
LOGIN :

Register | Disclaimer

   EN    FR    IT 

 









Legend :    VFR   Marginal VFR   IFR   Intensive IFR   Very Intensive IFR
Visi :
Ceiling :
>= 8 km
>= 3000ft
5 to 8 km
1000 to 3000 ft
1500m to 5 km
500 to 1000 ft
800 to 1500m
200 to 500 ft
< 800m
< 200 ft
Symbols :   Thunderstorms  Fog  Heavy snow  Heavy precipitations  Wind > 20 kt






- Airport Elevation : 37 ft


KNBC - Beaufort MCAS - Merritt Field

CURRENT METAR :
  • 301856Z 26019G27KT 10SM SCT030 15/07 A2972 RMK AO2 PK WND 26029/1820 SLP065 T01500072

EXPIRED METARs :
  • 301756Z 24020G28KT 10SM OVC029 17/09 A2972 RMK AO2 PK WND 24028/1751 SLP064 60003 T01720089 10206 20167 50004
  • 301656Z 25019G28KT 10SM BKN030 BKN070 17/09 A2973 RMK AO2 PK WND 26028/1653 SLP067 T01720089

TAF TAF KNBC
Valid from the 30 at 15:00 until the 01 at 15:00 UTC


3015/0115 25020G30KT 9999 FEW020 BKN080 QNH2971INS
BECMG 3019/3021 26015G25KT 9999 FEW040 QNH2973INS
FM010400 27010G20KT 9999 SKC QNH2991INS T19/3015Z T02/0113Z
KZJX FIR / North America



MET'MAP, your aeronautical weather chart ! - Copyright ORBIFLY December 2007 - Disclaimer

ORBIFLY MET'MAP TEAM :

Programming & Development : Alexandra Zaïnal
Concept & original design : Baudouin d'Aumeries
Assistance for programming : Marc-Olivier Méhu
Technical & hardware support : Manuel Goepfert

Contact : metmap@orbifly.com




SOURCES & CREDITS :

   NOAA       Earth
Advisory